Time;durP1;ratioP1;P1;durP2;ratioP2;P2;SDS_P1;SDS_P2;PMS_P1;PMS_P2;Temp;Humidity;BMP_temperature;BMP_pressure;BME280_temperature;BME280_humidity;BME280_pressure;Samples;Min_cycle;Max_cycle;Signal;HPM_P1;HPM_P2
2021/07/01 00:01:12;;;;;;;7.10;3.50;;;;;;;19.00;100.00;100025.77;1622706;88;21008;-68
2021/07/01 00:03:39;;;;;;;7.17;4.00;;;;;;;19.04;100.00;100020.27;1621891;87;21085;-64
2021/07/01 00:06:06;;;;;;;6.30;4.20;;;;;;;19.04;100.00;100016.31;1622909;88;21603;-68
2021/07/01 00:08:33;;;;;;;6.27;3.60;;;;;;;18.99;100.00;100019.42;1623189;88;21084;-68
2021/07/01 00:11:00;;;;;;;5.90;3.70;;;;;;;19.09;100.00;100013.75;1621950;88;21135;-68
2021/07/01 00:13:26;;;;;;;7.10;3.80;;;;;;;19.07;100.00;100011.87;1622923;88;21514;-63
2021/07/01 00:15:54;;;;;;;5.60;4.40;;;;;;;19.10;100.00;100011.38;1622126;87;21033;-67
2021/07/01 00:18:21;;;;;;;9.33;4.63;;;;;;;19.17;100.00;100005.40;1622915;88;20981;-68
2021/07/01 00:20:47;;;;;;;6.60;3.63;;;;;;;19.09;100.00;99996.59;1621737;88;21467;-67
2021/07/01 00:23:14;;;;;;;5.07;4.07;;;;;;;19.09;100.00;99997.91;1622715;88;21709;-68
2021/07/01 00:25:42;;;;;;;5.23;4.03;;;;;;;19.16;100.00;100002.98;1622771;88;21070;-67
2021/07/01 00:28:08;;;;;;;6.23;4.90;;;;;;;19.19;100.00;100001.17;1622801;88;22482;-68
2021/07/01 00:30:35;;;;;;;8.03;4.30;;;;;;;19.07;100.00;99998.66;1622564;88;20982;-61
2021/07/01 00:33:02;;;;;;;4.97;4.03;;;;;;;19.12;100.00;99997.91;1622479;88;21131;-68
2021/07/01 00:35:29;;;;;;;5.33;4.43;;;;;;;19.04;100.00;99999.67;1622947;87;21239;-68
2021/07/01 00:37:55;;;;;;;7.50;5.20;;;;;;;18.98;100.00;99998.81;1622216;88;20961;-67
2021/07/01 00:40:22;;;;;;;6.47;4.10;;;;;;;19.10;100.00;100001.34;1622649;88;21103;-60
2021/07/01 00:42:48;;;;;;;5.60;4.00;;;;;;;19.16;100.00;100005.09;1622107;88;20998;-68
2021/07/01 00:45:15;;;;;;;5.97;4.03;;;;;;;19.27;100.00;99998.63;1615599;86;21192;-69
2021/07/01 00:47:42;;;;;;;6.10;4.17;;;;;;;19.16;100.00;100002.45;1622330;88;21174;-62
2021/07/01 00:50:12;;;;;;;6.67;4.50;;;;;;;19.24;100.00;100002.55;1623054;86;21016;-69
2021/07/01 00:52:38;;;;;;;6.23;4.33;;;;;;;19.20;100.00;100000.92;1622053;86;21056;-60
2021/07/01 00:55:07;;;;;;;6.33;4.20;;;;;;;19.03;100.00;100002.04;1622840;88;21135;-67
2021/07/01 00:57:34;;;;;;;7.83;5.10;;;;;;;19.06;100.00;99994.95;1622623;86;21021;-67
2021/07/01 01:00:07;;;;;;;10.43;4.83;;;;;;;19.06;100.00;99999.70;1622148;88;21166;-64
2021/07/01 01:02:33;;;;;;;5.80;4.27;;;;;;;19.05;100.00;100006.02;1621793;88;21000;-67
2021/07/01 01:05:01;;;;;;;8.67;4.63;;;;;;;19.12;100.00;100011.92;1617762;86;21052;-68
2021/07/01 01:07:28;;;;;;;6.03;4.00;;;;;;;19.27;100.00;100017.92;1618148;88;21642;-67
2021/07/01 01:09:55;;;;;;;8.23;4.57;;;;;;;19.35;100.00;100015.37;1615753;88;21037;-61
2021/07/01 01:12:21;;;;;;;6.70;4.53;;;;;;;19.28;100.00;100013.43;1616015;87;21129;-62
2021/07/01 01:14:48;;;;;;;6.70;4.73;;;;;;;19.29;100.00;100009.77;1615808;88;21044;-68
2021/07/01 01:17:16;;;;;;;6.20;4.57;;;;;;;19.16;100.00;100014.34;1617218;87;20978;-67
2021/07/01 01:19:43;;;;;;;6.37;4.20;;;;;;;19.16;100.00;100014.34;1615931;88;21669;-67
2021/07/01 01:22:10;;;;;;;6.93;4.80;;;;;;;19.39;100.00;100008.02;1615808;88;20982;-62
2021/07/01 01:24:39;;;;;;;6.87;3.97;;;;;;;19.35;100.00;100014.84;1617561;88;21189;-67
2021/07/01 01:27:05;;;;;;;7.90;5.17;;;;;;;19.51;100.00;100010.55;1593887;88;20941;-67
2021/07/01 01:29:33;;;;;;;12.17;5.97;;;;;;;19.32;100.00;100003.95;1617963;88;21030;-67
2021/07/01 01:32:00;;;;;;;6.53;4.20;;;;;;;19.41;100.00;99999.86;1615780;87;21184;-61
2021/07/01 01:34:27;;;;;;;6.47;4.20;;;;;;;19.62;100.00;100004.85;1617407;88;21128;-67
2021/07/01 01:36:55;;;;;;;6.70;5.10;;;;;;;19.64;100.00;100006.21;1616608;88;21176;-67
2021/07/01 01:39:22;;;;;;;7.20;5.20;;;;;;;19.73;100.00;100009.20;1617237;88;21491;-68
2021/07/01 01:41:50;;;;;;;8.40;5.50;;;;;;;19.74;100.00;100005.53;1611943;88;21085;-61
2021/07/01 01:44:17;;;;;;;6.90;4.03;;;;;;;19.84;100.00;100020.16;1616008;88;20973;-63
2021/07/01 01:46:44;;;;;;;6.50;5.10;;;;;;;19.89;100.00;100014.14;1594043;88;21128;-67
2021/07/01 01:49:11;;;;;;;7.53;5.23;;;;;;;19.68;100.00;100007.31;1617126;88;22083;-67
2021/07/01 01:51:38;;;;;;;6.57;5.13;;;;;;;19.51;100.00;100010.55;1617693;88;21045;-67
2021/07/01 01:54:06;;;;;;;8.73;5.47;;;;;;;19.61;100.00;100013.81;1622128;87;21092;-63
2021/07/01 01:56:38;;;;;;;7.27;4.83;;;;;;;19.51;100.00;100007.08;1616455;87;21306;-67
2021/07/01 01:59:07;;;;;;;7.07;5.63;;;;;;;19.41;100.00;100015.19;1616077;88;21065;-67
2021/07/01 02:01:52;;;;;;;8.90;5.73;;;;;;;19.60;100.00;100010.91;1616750;88;21183;-62
2021/07/01 02:04:20;;;;;;;9.23;5.57;;;;;;;19.95;100.00;100003.06;1617831;87;21040;-67
2021/07/01 02:06:49;;;;;;;7.97;4.60;;;;;;;20.37;100.00;100000.50;1627195;86;21535;-67
2021/07/01 02:09:17;;;;;;;9.37;5.70;;;;;;;20.74;100.00;100001.05;1629081;86;21109;-66
2021/07/01 02:11:47;;;;;;;7.73;5.27;;;;;;;21.26;100.00;99994.41;1600855;87;21021;-63
2021/07/01 02:14:17;;;;;;;10.13;5.37;;;;;;;21.71;100.00;99989.52;1626881;86;22600;-64
2021/07/01 02:16:45;;;;;;;11.73;5.60;;;;;;;22.11;100.00;99989.52;1626118;86;21107;-67
2021/07/01 02:19:13;;;;;;;12.27;5.60;;;;;;;22.45;100.00;99994.84;1592660;88;21035;-67
2021/07/01 02:21:41;;;;;;;7.47;5.93;;;;;;;22.88;100.00;99995.27;1633368;86;21546;-67
2021/07/01 02:24:09;;;;;;;11.43;6.43;;;;;;;23.13;100.00;99997.09;1591793;88;21180;-67
2021/07/01 02:26:36;;;;;;;13.30;7.93;;;;;;;23.46;100.00;99992.41;1600963;87;21178;-68
2021/07/01 02:29:03;;;;;;;10.53;7.70;;;;;;;23.65;100.00;99989.11;1622339;86;21032;-65
2021/07/01 02:31:38;;;;;;;11.60;8.17;;;;;;;23.61;100.00;99986.20;1619417;86;21015;-68
2021/07/01 02:34:05;;;;;;;13.93;9.20;;;;;;;23.37;100.00;99986.59;1591159;88;21047;-64
2021/07/01 02:36:51;;;;;;;9.80;8.47;;;;;;;23.27;100.00;99989.58;1599297;87;21033;-67
2021/07/01 02:39:36;;;;;;;12.53;9.10;;;;;;;23.24;100.00;99999.97;1603559;87;21114;-63
2021/07/01 02:42:05;;;;;;;11.23;8.13;;;;;;;23.18;100.00;99994.39;1601266;87;21123;-68
2021/07/01 02:44:33;;;;;;;10.63;7.47;;;;;;;23.40;100.00;99998.81;1592506;88;21022;-67
2021/07/01 02:47:19;;;;;;;11.30;8.20;;;;;;;23.72;100.00;99986.97;1618346;86;21036;-61
2021/07/01 02:49:46;;;;;;;10.07;8.30;;;;;;;24.49;100.00;99988.48;1628316;86;21195;-67
2021/07/01 02:52:14;;;;;;;13.47;8.87;;;;;;;25.20;100.00;99978.36;1628801;86;21945;-67
2021/07/01 02:54:41;;;;;;;11.33;8.50;;;;;;;25.87;100.00;99971.53;1625998;86;21539;-68
2021/07/01 02:57:08;;;;;;;11.77;9.53;;;;;;;26.36;100.00;99968.04;1613532;87;21032;-67
2021/07/01 02:59:35;;;;;;;13.07;9.07;;;;;;;27.35;100.00;99963.97;1620905;86;21024;-67
2021/07/01 03:02:09;;;;;;;11.78;8.93;;;;;;;28.29;100.00;99966.28;1673933;80;21070;-69
2021/07/01 03:04:37;;;;;;;12.53;9.08;;;;;;;29.25;100.00;99956.13;1644392;86;21877;-69
2021/07/01 03:07:05;;;;;;;12.43;10.05;;;;;;;29.92;100.00;99941.94;1633413;85;21516;-62
2021/07/01 03:09:33;;;;;;;15.78;9.35;;;;;;;30.34;100.00;99939.45;1616506;86;21626;-69
2021/07/01 03:11:59;;;;;;;14.85;11.22;;;;;;;30.58;100.00;99941.58;1667942;84;21046;-69
2021/07/01 03:14:27;;;;;;;13.45;10.38;;;;;;;30.96;100.00;99946.92;1672722;84;21130;-66
2021/07/01 03:16:55;;;;;;;13.68;10.58;;;;;;;31.32;100.00;99944.22;1669828;84;20935;-66
2021/07/01 03:19:22;;;;;;;15.85;11.65;;;;;;;31.57;100.00;99943.77;1673481;84;21822;-67
2021/07/01 03:22:07;;;;;;;17.90;10.70;;;;;;;32.18;94.46;99947.42;1668823;84;20853;-67
2021/07/01 03:24:34;;;;;;;16.00;11.43;;;;;;;32.52;89.77;99948.71;1666989;84;21006;-61
2021/07/01 03:27:04;;;;;;;16.57;12.23;;;;;;;33.24;79.89;99953.78;1678921;83;21082;-61
2021/07/01 03:29:31;;;;;;;17.77;12.53;;;;;;;33.58;72.93;99947.61;1669039;82;22428;-67
2021/07/01 03:31:58;;;;;;;16.00;12.23;;;;;;;33.99;69.18;99952.38;1635627;85;20967;-68
2021/07/01 03:34:25;;;;;;;19.30;12.70;;;;;;;34.23;64.60;99959.52;1664533;83;21622;-66
2021/07/01 03:36:52;;;;;;;17.05;12.37;;;;;;;34.84;57.97;99953.61;1644437;85;21557;-67
2021/07/01 03:39:37;;;;;;;15.25;11.33;;;;;;;35.03;56.12;99951.52;1673618;84;20996;-65
2021/07/01 03:42:06;;;;;;;14.15;9.53;;;;;;;35.30;54.17;99952.45;1702491;82;22124;-67
2021/07/01 03:44:33;;;;;;;14.68;8.85;;;;;;;35.80;51.07;99952.05;1668351;85;21002;-67
2021/07/01 03:46:59;;;;;;;11.45;8.88;;;;;;;36.14;49.37;99959.05;1704167;82;20967;-66
2021/07/01 03:49:26;;;;;;;13.75;8.98;;;;;;;36.27;48.74;99957.73;1668538;85;21435;-66
2021/07/01 03:52:11;;;;;;;10.93;7.67;;;;;;;36.48;47.11;99962.72;1705168;82;20982;-68
2021/07/01 03:54:39;;;;;;;12.75;8.93;;;;;;;36.68;46.10;99972.34;1703949;82;21168;-61
2021/07/01 03:57:08;;;;;;;12.15;8.43;;;;;;;36.69;45.35;99978.55;1705170;82;20948;-69
2021/07/01 03:59:38;;;;;;;13.22;8.63;;;;;;;36.67;45.67;99967.27;1702742;83;21469;-61
2021/07/01 04:02:23;;;;;;;10.48;7.92;;;;;;;36.99;45.14;99957.66;1697846;82;21441;-61
2021/07/01 04:04:50;;;;;;;12.50;8.08;;;;;;;37.37;43.65;99964.51;1689448;83;20990;-69
2021/07/01 04:07:16;;;;;;;10.75;7.50;;;;;;;37.74;41.99;99974.84;1675837;84;22432;-69
2021/07/01 04:09:44;;;;;;;10.98;7.72;;;;;;;37.53;41.91;99986.84;1676310;85;21483;-69
2021/07/01 04:12:30;;;;;;;10.53;8.95;;;;;;;37.46;41.37;99976.67;1671734;85;21062;-68
2021/07/01 04:15:14;;;;;;;10.35;8.78;;;;;;;37.20;41.51;99969.92;1669948;85;21398;-71
2021/07/01 04:17:42;;;;;;;12.82;8.65;;;;;;;37.66;40.70;99968.35;1688160;83;21043;-71
2021/07/01 04:20:13;;;;;;;12.07;8.70;;;;;;;37.95;39.72;99974.27;1698235;83;21160;-64
2021/07/01 04:22:54;;;;;;;10.85;8.10;;;;;;;38.28;39.25;99984.08;1681202;83;20971;-71
2021/07/01 04:25:28;;;;;;;12.47;8.63;;;;;;;38.15;39.97;99984.94;1671787;83;21056;-71
2021/07/01 04:27:54;;;;;;;12.05;10.00;;;;;;;38.50;39.54;99973.58;1702470;83;20998;-71
2021/07/01 04:30:21;;;;;;;12.63;10.40;;;;;;;38.75;38.33;99987.33;1703628;83;21144;-71
2021/07/01 04:33:06;;;;;;;14.68;11.95;;;;;;;39.18;37.06;99984.86;1693530;83;21419;-71
2021/07/01 04:35:33;;;;;;;15.98;11.20;;;;;;;39.24;36.97;99982.56;1703413;83;20987;-61
2021/07/01 04:38:00;;;;;;;13.88;12.35;;;;;;;39.21;37.25;99982.73;1702584;83;21017;-68
2021/07/01 04:40:27;;;;;;;15.48;12.45;;;;;;;39.30;37.58;99980.45;1703588;83;20919;-63
2021/07/01 04:42:55;;;;;;;15.83;13.00;;;;;;;39.36;37.24;99983.02;1703802;83;21038;-68
2021/07/01 04:45:22;;;;;;;13.83;11.43;;;;;;;39.31;36.82;99976.55;1703986;83;21114;-67
2021/07/01 04:47:48;;;;;;;13.25;11.95;;;;;;;38.88;37.09;99984.53;1703233;83;21010;-69
2021/07/01 04:50:16;;;;;;;14.70;12.53;;;;;;;38.12;37.89;99982.98;1704731;83;20865;-72
2021/07/01 04:52:59;;;;;;;11.55;10.13;;;;;;;37.92;39.16;99976.96;1649416;85;21582;-73
2021/07/01 04:55:45;;;;;;;10.45;9.35;;;;;;;38.47;38.58;99980.36;1691693;83;20968;-72
2021/07/01 04:58:30;;;;;;;11.53;8.93;;;;;;;38.85;38.28;99970.30;1703063;83;21165;-72
2021/07/01 05:00:58;;;;;;;11.48;9.75;;;;;;;38.75;38.23;99977.02;1692939;84;21058;-67
2021/07/01 05:03:43;;;;;;;9.30;8.30;;;;;;;39.12;37.54;99965.36;1702702;83;20944;-71
2021/07/01 05:06:10;;;;;;;9.33;8.18;;;;;;;39.33;37.30;99963.91;1675068;84;21095;-72
2021/07/01 05:08:37;;;;;;;10.53;8.98;;;;;;;39.63;36.61;99960.87;1703740;83;21074;-73
2021/07/01 05:11:03;;;;;;;9.25;8.28;;;;;;;39.72;36.27;99968.11;1702479;83;21151;-73
2021/07/01 05:13:32;;;;;;;10.68;8.33;;;;;;;40.08;36.08;99964.83;1703758;83;21057;-72
2021/07/01 05:16:00;;;;;;;12.23;9.28;;;;;;;40.50;34.85;99961.08;1702266;83;21086;-68
2021/07/01 05:18:27;;;;;;;9.53;8.63;;;;;;;40.72;34.95;99951.68;1703400;83;21536;-72
2021/07/01 05:21:05;;;;;;;12.73;8.60;;;;;;;41.13;33.97;99951.75;1691493;83;21058;-71
2021/07/01 05:23:36;;;;;;;8.30;7.47;;;;;;;41.36;33.62;99957.48;1666103;84;21177;-71
2021/07/01 05:26:21;;;;;;;9.03;8.13;;;;;;;41.46;32.93;99953.94;1668690;84;21521;-71
2021/07/01 05:29:06;;;;;;;8.95;8.00;;;;;;;41.74;32.91;99965.27;1703404;83;20996;-71
2021/07/01 05:31:46;;;;;;;9.10;8.00;;;;;;;41.97;31.83;99963.95;1683200;83;21500;-65
2021/07/01 05:34:14;;;;;;;8.78;7.85;;;;;;;41.96;32.32;99959.67;1663676;83;20984;-72
2021/07/01 05:36:41;;;;;;;9.13;8.15;;;;;;;41.99;31.89;99954.77;1660056;85;21153;-72
2021/07/01 05:39:10;;;;;;;16.20;7.08;;;;;;;41.95;31.83;99956.16;1660553;85;20915;-71
2021/07/01 05:41:37;;;;;;;8.25;7.30;;;;;;;41.98;31.56;99962.80;1678286;84;21617;-63
2021/07/01 05:44:05;;;;;;;8.05;7.03;;;;;;;41.62;31.50;99955.41;1625426;87;22136;-69
2021/07/01 05:46:39;;;;;;;7.72;6.92;;;;;;;41.23;32.43;99958.55;1646392;86;21484;-70
2021/07/01 05:49:06;;;;;;;8.55;7.03;;;;;;;41.08;32.99;99951.59;1647970;85;21851;-71
2021/07/01 05:51:35;;;;;;;7.83;7.03;;;;;;;41.06;33.05;99955.30;1648207;85;20950;-62
2021/07/01 05:54:29;;;;;;;7.83;7.10;;;;;;;40.77;33.85;99954.62;1624700;87;21481;-70
2021/07/01 05:56:36;;;;;;;10.90;7.03;;;;;;;40.52;34.29;99954.64;1635212;86;21065;-71
2021/07/01 05:58:59;;;;;;;8.10;7.40;;;;;;;40.43;34.62;99955.66;1693093;83;21074;-70
2021/07/01 06:01:26;;;;;;;6.87;6.25;;;;;;;40.25;35.26;99958.41;1704044;83;22474;-68
2021/07/01 06:03:53;;;;;;;7.83;7.03;;;;;;;40.14;35.73;99957.04;1672180;84;21012;-67
2021/07/01 06:06:43;;;;;;;7.08;6.37;;;;;;;39.95;35.80;99965.59;1673709;84;21033;-68
2021/07/01 06:09:22;;;;;;;7.10;6.40;;;;;;;39.29;37.24;99966.62;1650563;85;20988;-62
2021/07/01 06:11:56;;;;;;;7.28;6.30;;;;;;;38.87;38.71;99969.91;1705414;82;21081;-68
2021/07/01 06:14:24;;;;;;;6.80;6.10;;;;;;;38.35;40.04;99960.44;1706065;82;21142;-69
2021/07/01 06:16:55;;;;;;;8.63;5.75;;;;;;;37.69;44.75;99956.70;1705355;82;21037;-69
2021/07/01 06:19:21;;;;;;;7.80;6.00;;;;;;;37.69;44.75;99956.70;1655016;85;21039;-68
2021/07/01 06:21:49;;;;;;;7.50;5.53;;;;;;;38.14;44.21;99950.13;1674738;83;21028;-70
2021/07/01 06:24:17;;;;;;;7.00;6.30;;;;;;;38.53;43.86;99943.42;1674519;84;21094;-70
2021/07/01 06:26:46;;;;;;;6.83;5.90;;;;;;;38.88;43.76;99940.93;1673481;84;21166;-70
2021/07/01 06:29:13;;;;;;;6.87;5.92;;;;;;;39.26;42.40;99935.27;1705409;82;20983;-63
2021/07/01 06:31:40;;;;;;;6.53;5.92;;;;;;;39.78;41.16;99942.01;1652538;85;21051;-69
2021/07/01 06:34:07;;;;;;;5.87;5.22;;;;;;;39.58;40.58;99933.95;1674155;83;21055;-70
2021/07/01 06:36:36;;;;;;;6.55;5.90;;;;;;;39.55;40.99;99930.63;1645274;85;21026;-67
2021/07/01 06:39:05;;;;;;;7.72;5.55;;;;;;;39.45;41.23;99931.41;1636685;85;21089;-62
2021/07/01 06:41:36;;;;;;;9.73;5.92;;;;;;;39.38;41.37;99932.17;1666731;82;21032;-68
2021/07/01 06:44:27;;;;;;;8.65;5.70;;;;;;;39.50;41.78;99926.92;1733671;80;21542;-67
2021/07/01 06:47:12;;;;;;;7.03;5.53;;;;;;;39.88;41.41;99920.74;1735273;81;21004;-67
2021/07/01 06:49:58;;;;;;;6.53;5.10;;;;;;;39.94;40.25;99921.73;1736281;81;21517;-66
2021/07/01 06:52:44;;;;;;;7.65;5.70;;;;;;;40.26;40.13;99918.98;1735828;81;21124;-68
2021/07/01 06:55:27;;;;;;;5.53;5.03;;;;;;;40.50;39.04;99916.00;1647466;85;21083;-67
2021/07/01 06:57:56;;;;;;;7.65;5.30;;;;;;;40.83;38.45;99918.85;1672032;84;20989;-66
2021/07/01 07:00:23;;;;;;;7.37;6.47;;;;;;;41.08;37.79;99912.72;1672572;84;21349;-69
2021/07/01 07:02:52;;;;;;;10.10;5.97;;;;;;;41.29;36.40;99915.91;1732716;81;20996;-69
2021/07/01 07:05:19;;;;;;;8.25;6.75;;;;;;;41.39;36.47;99911.55;1733287;81;21097;-68
2021/07/01 07:07:47;;;;;;;7.47;6.22;;;;;;;41.62;36.50;99917.09;1689184;84;21115;-62
2021/07/01 07:10:18;;;;;;;;;;;;;;;41.54;36.16;99915.78;1705927;83;21454;-67
2021/07/01 07:12:48;;;;;;;6.90;6.07;;;;;;;41.10;36.71;99909.57;1703897;83;20266;-67
2021/07/01 07:15:18;;;;;;;7.47;5.80;;;;;;;40.56;37.65;99910.37;1732670;81;20893;-65
2021/07/01 07:17:48;;;;;;;10.58;7.08;;;;;;;40.04;38.71;99907.28;1733042;81;21077;-63
2021/07/01 07:20:15;;;;;;;7.22;6.15;;;;;;;39.62;39.95;99908.23;1731338;81;22186;-67
2021/07/01 07:22:41;;;;;;;6.30;5.70;;;;;;;39.61;40.08;99905.90;1686968;84;21037;-68
2021/07/01 07:25:10;;;;;;;8.40;5.72;;;;;;;39.69;40.59;99899.30;1705403;83;21463;-67
2021/07/01 07:27:39;;;;;;;8.38;5.15;;;;;;;39.87;40.82;99905.55;1724303;82;21059;-62
2021/07/01 07:30:07;;;;;;;8.93;7.67;;;;;;;40.24;39.80;99901.64;1723623;82;21495;-66
2021/07/01 07:32:35;;;;;;;9.38;5.35;;;;;;;40.63;39.40;99904.88;1723102;82;21572;-65
2021/07/01 07:35:01;;;;;;;7.05;5.35;;;;;;;40.87;38.76;99898.34;1724432;82;21437;-67
2021/07/01 07:37:28;;;;;;;5.92;5.10;;;;;;;41.19;37.99;99901.72;1727132;83;21026;-69
2021/07/01 07:39:54;;;;;;;7.08;5.10;;;;;;;41.38;37.21;99906.50;1723116;82;20969;-64
2021/07/01 07:42:21;;;;;;;7.67;6.70;;;;;;;41.58;37.13;99899.92;1723256;82;21154;-67
2021/07/01 07:44:47;;;;;;;8.38;6.30;;;;;;;41.87;36.13;99901.87;1724035;82;21514;-66
2021/07/01 07:47:14;;;;;;;7.92;5.80;;;;;;;41.78;35.41;99898.19;1723113;82;20941;-67
2021/07/01 07:49:42;;;;;;;8.38;5.40;;;;;;;41.38;35.71;99897.70;1670442;84;20924;-67
2021/07/01 07:52:11;;;;;;;6.78;5.33;;;;;;;40.78;36.60;99900.14;1723234;82;21012;-67
2021/07/01 07:54:44;;;;;;;5.57;4.97;;;;;;;40.13;37.65;99895.42;1724177;82;21485;-67
2021/07/01 07:57:10;;;;;;;5.78;3.87;;;;;;;39.60;39.62;99894.21;1722827;82;21353;-67
2021/07/01 07:59:38;;;;;;;9.70;4.55;;;;;;;39.13;39.91;99904.21;1670305;84;20912;-66
2021/07/01 08:02:06;;;;;;;8.70;5.70;;;;;;;38.81;40.74;99901.39;1669497;84;21135;-62
2021/07/01 08:04:35;;;;;;;7.97;6.00;;;;;;;38.60;42.12;99901.25;1670051;84;21110;-68
2021/07/01 08:07:04;;;;;;;6.78;4.97;;;;;;;38.45;42.89;99916.17;1700764;83;21172;-67
2021/07/01 08:09:30;;;;;;;6.78;5.05;;;;;;;38.29;43.06;99907.46;1700373;82;20942;-66
2021/07/01 08:11:58;;;;;;;6.28;5.08;;;;;;;38.14;43.57;99904.44;1699853;83;21045;-62
2021/07/01 08:14:25;;;;;;;18.20;6.55;;;;;;;37.85;44.20;99905.57;1699872;83;21076;-68
2021/07/01 08:16:51;;;;;;;5.37;4.37;;;;;;;37.78;45.50;99908.81;1700419;82;21026;-67
2021/07/01 08:19:18;;;;;;;5.03;4.50;;;;;;;37.99;45.55;99906.28;1700225;83;21161;-69
2021/07/01 08:21:46;;;;;;;6.30;5.20;;;;;;;38.19;44.44;99901.39;1699439;82;21503;-62
2021/07/01 08:24:13;;;;;;;5.87;4.05;;;;;;;38.28;43.08;99905.91;1700234;83;21469;-66
2021/07/01 08:26:40;;;;;;;5.67;4.47;;;;;;;38.05;43.73;99904.00;1700192;83;21810;-67
2021/07/01 08:29:06;;;;;;;6.03;5.42;;;;;;;37.78;44.60;99895.21;1700646;82;21001;-67
2021/07/01 08:31:34;;;;;;;4.92;4.42;;;;;;;37.69;46.61;99905.02;1700033;82;21148;-69
2021/07/01 08:34:04;;;;;;;7.62;4.60;;;;;;;37.73;44.79;99907.19;1700655;83;20993;-68
2021/07/01 08:36:31;;;;;;;6.10;4.65;;;;;;;37.59;45.66;99896.98;1699788;82;20939;-68
2021/07/01 08:38:57;;;;;;;8.70;4.78;;;;;;;37.50;45.57;99902.71;1690609;83;21077;-67
2021/07/01 08:41:28;;;;;;;7.75;5.15;;;;;;;37.11;46.24;99899.56;1699829;83;21080;-67
2021/07/01 08:44:02;;;;;;;5.17;4.65;;;;;;;36.84;47.17;99906.98;1701403;82;21133;-66
2021/07/01 08:46:49;;;;;;;12.82;5.45;;;;;;;36.58;49.05;99900.23;1699291;83;21056;-67
2021/07/01 08:49:30;;;;;;;5.83;5.20;;;;;;;36.17;51.05;99906.20;1693250;83;21494;-68
2021/07/01 08:51:57;;;;;;;7.00;6.10;;;;;;;35.88;53.32;99904.95;1700157;82;20922;-64
2021/07/01 08:54:35;;;;;;;10.95;6.15;;;;;;;35.45;58.11;99904.73;1673494;84;21030;-68
2021/07/01 08:57:05;;;;;;;7.62;5.67;;;;;;;35.79;56.69;99900.33;1699464;82;21134;-65
2021/07/01 08:59:44;;;;;;;9.18;5.95;;;;;;;36.37;53.92;99890.62;1699792;83;21505;-59
2021/07/01 09:02:11;;;;;;;10.40;6.30;;;;;;;36.75;53.09;99894.27;1699369;82;22127;-65
2021/07/01 09:04:55;;;;;;;10.68;6.70;;;;;;;37.36;49.95;99888.97;1699542;82;21014;-66
2021/07/01 09:07:25;;;;;;;8.08;6.55;;;;;;;37.65;48.14;99885.95;1700534;83;20975;-62
2021/07/01 09:09:56;;;;;;;;;;;;;;;37.71;47.29;99881.74;1701638;82;21148;-61
2021/07/01 09:12:25;;;;;;;8.45;7.08;;;;;;;38.02;47.68;99879.67;1703869;82;28609;-63
2021/07/01 09:15:00;;;;;;;7.72;6.22;;;;;;;38.51;45.41;99866.78;1699559;83;21496;-61
2021/07/01 09:17:29;;;;;;;6.90;6.28;;;;;;;38.86;44.62;99865.58;1715485;82;20983;-64
2021/07/01 09:20:03;;;;;;;6.42;5.85;;;;;;;39.17;43.36;99864.69;1714110;82;21080;-66
2021/07/01 09:22:30;;;;;;;7.08;5.47;;;;;;;39.62;40.72;99870.03;1700344;82;21143;-65
2021/07/01 09:24:56;;;;;;;6.25;5.62;;;;;;;40.06;39.47;99866.73;1700479;82;20954;-65
2021/07/01 09:27:25;;;;;;;8.25;5.53;;;;;;;40.48;37.99;99864.50;1714124;82;20952;-61
2021/07/01 09:29:51;;;;;;;9.48;6.65;;;;;;;40.57;36.39;99862.14;1716028;82;21809;-66
2021/07/01 09:32:20;;;;;;;6.35;4.92;;;;;;;40.57;36.28;99862.73;1670170;84;20952;-65
2021/07/01 09:34:48;;;;;;;6.00;5.37;;;;;;;40.45;36.60;99863.15;1724442;82;21139;-66
2021/07/01 09:37:16;;;;;;;;;;;;;;;40.07;37.47;99861.45;1672175;84;21004;-62
2021/07/01 09:39:47;;;;;;;11.28;7.22;;;;;;;40.27;37.40;99855.80;1703305;83;20161;-64
2021/07/01 09:42:14;;;;;;;11.05;9.53;;;;;;;40.20;37.23;99851.73;1699886;82;20871;-65
2021/07/01 09:44:41;;;;;;;8.98;7.53;;;;;;;40.02;37.57;99853.68;1715535;82;21069;-66
2021/07/01 09:47:10;;;;;;;8.05;7.25;;;;;;;39.47;38.58;99845.88;1670304;84;21231;-61
2021/07/01 09:49:41;;;;;;;8.58;5.72;;;;;;;38.91;40.55;99841.30;1669961;84;22990;-65
2021/07/01 09:52:13;;;;;;;6.87;6.00;;;;;;;38.72;40.74;99843.73;1709995;82;21557;-65
2021/07/01 09:54:48;;;;;;;6.80;6.10;;;;;;;38.91;41.05;99844.02;1738683;81;20957;-64
2021/07/01 09:57:30;;;;;;;6.60;5.60;;;;;;;38.79;40.89;99832.86;1728841;81;20957;-65
2021/07/01 10:00:03;;;;;;;6.58;5.97;;;;;;;38.66;41.53;99823.46;1721674;81;21151;-64
2021/07/01 10:02:32;;;;;;;7.12;6.28;;;;;;;38.84;42.20;99828.42;1709542;82;21011;-63
2021/07/01 10:04:58;;;;;;;6.22;5.62;;;;;;;39.02;41.51;99823.58;1689136;82;21106;-61
2021/07/01 10:07:25;;;;;;;6.87;6.20;;;;;;;39.27;40.34;99827.75;1694251;82;21061;-63
2021/07/01 10:09:54;;;;;;;6.70;6.00;;;;;;;39.29;40.03;99822.70;1698091;82;21043;-62
2021/07/01 10:12:26;;;;;;;6.90;6.15;;;;;;;39.10;40.53;99821.86;1701937;82;21007;-62
2021/07/01 10:14:58;;;;;;;6.45;5.85;;;;;;;39.18;40.50;99818.56;1666486;81;21585;-61
2021/07/01 10:17:27;;;;;;;7.00;5.60;;;;;;;39.25;40.19;99824.06;1712763;82;21005;-63
2021/07/01 10:20:09;;;;;;;6.70;6.05;;;;;;;39.29;39.27;99822.11;1671062;84;21034;-63
2021/07/01 10:22:38;;;;;;;7.12;5.90;;;;;;;39.34;40.22;99813.53;1676653;84;20936;-63
2021/07/01 10:25:06;;;;;;;6.63;5.93;;;;;;;39.60;38.88;99811.59;1676197;84;21174;-62
2021/07/01 10:27:41;;;;;;;7.05;6.17;;;;;;;39.16;39.24;99817.57;1709700;82;21493;-62
2021/07/01 10:30:22;;;;;;;7.15;6.45;;;;;;;38.59;39.70;99824.20;1705711;82;21779;-61
2021/07/01 10:32:54;;;;;;;6.58;5.87;;;;;;;37.85;41.02;99815.80;1705440;82;21119;-64
2021/07/01 10:35:30;;;;;;;6.25;5.60;;;;;;;37.19;42.69;99825.10;1705953;82;21520;-63
2021/07/01 10:38:02;;;;;;;7.90;5.70;;;;;;;36.96;44.91;99817.69;1699405;83;21878;-63
2021/07/01 10:40:28;;;;;;;6.40;5.78;;;;;;;37.17;46.13;99815.20;1698144;82;21138;-63
2021/07/01 10:42:55;;;;;;;8.10;6.53;;;;;;;37.77;45.89;99811.44;1699695;82;21511;-63
2021/07/01 10:45:24;;;;;;;7.25;6.47;;;;;;;38.04;43.35;99816.72;1702397;83;21560;-63
2021/07/01 10:47:51;;;;;;;7.25;6.05;;;;;;;38.02;43.52;99810.28;1703780;82;20926;-60
2021/07/01 10:50:25;;;;;;;7.12;6.30;;;;;;;37.84;44.28;99817.52;1709608;82;21160;-63
2021/07/01 10:52:52;;;;;;;7.65;6.17;;;;;;;37.58;44.73;99810.32;1704060;82;21082;-62
2021/07/01 10:55:19;;;;;;;7.80;5.95;;;;;;;37.71;43.27;99815.10;1714285;82;20932;-64
2021/07/01 10:57:56;;;;;;;6.85;6.10;;;;;;;37.77;44.91;99815.52;1703779;82;21001;-63
2021/07/01 11:00:42;;;;;;;7.28;6.37;;;;;;;37.95;43.43;99802.84;1708204;82;21481;-65
2021/07/01 11:03:12;;;;;;;9.85;6.35;;;;;;;37.71;44.65;99810.24;1696535;82;21244;-63
2021/07/01 11:05:39;;;;;;;7.20;6.50;;;;;;;37.37;44.47;99808.97;1704246;82;27146;-64
2021/07/01 11:08:06;;;;;;;8.10;5.42;;;;;;;36.91;45.19;99807.91;1709369;82;21014;-64
2021/07/01 11:10:38;;;;;;;6.53;5.42;;;;;;;36.89;45.90;99803.41;1708196;82;21056;-65
2021/07/01 11:13:09;;;;;;;7.37;5.55;;;;;;;37.21;44.29;99800.28;1712121;82;21548;-64
2021/07/01 11:16:01;;;;;;;6.92;5.35;;;;;;;37.27;44.80;99794.69;1705148;82;21503;-62
2021/07/01 11:18:42;;;;;;;6.97;5.60;;;;;;;37.18;45.08;99800.45;1706220;82;21072;-65
2021/07/01 11:21:17;;;;;;;7.08;5.80;;;;;;;37.19;45.82;99797.92;1707670;82;21010;-65
2021/07/01 11:23:49;;;;;;;5.75;5.10;;;;;;;37.45;45.89;99794.30;1709989;82;21063;-64
2021/07/01 11:26:32;;;;;;;6.35;4.97;;;;;;;37.88;42.94;99789.78;1708241;82;20993;-64
2021/07/01 11:29:04;;;;;;;11.22;5.87;;;;;;;38.12;42.99;99783.72;1699735;82;21143;-64
2021/07/01 11:31:44;;;;;;;6.25;5.65;;;;;;;38.60;41.84;99788.22;1710839;82;21036;-64
2021/07/01 11:34:14;;;;;;;5.53;5.00;;;;;;;38.62;41.24;99787.26;1709369;82;21076;-63
2021/07/01 11:36:52;;;;;;;;;;;;;;;38.79;41.05;99783.02;1709078;82;21376;-64
2021/07/01 11:39:25;;;;;;;5.95;5.17;;;;;;;38.70;40.19;99779.30;1698152;82;20168;-64
2021/07/01 11:41:52;;;;;;;5.75;4.80;;;;;;;38.73;39.65;99774.45;1700232;82;21786;-61